Time;durP1;ratioP1;P1;durP2;ratioP2;P2;SDS_P1;SDS_P2;PMS_P1;PMS_P2;Temp;Humidity;BMP_temperature;BMP_pressure;BME280_temperature;BME280_humidity;BME280_pressure;Samples;Min_cycle;Max_cycle;Signal;HPM_P1;HPM_P2
2023/01/05 00:02:08;;;;;;;;;;;;;;;9.93;70.06;99015.31;4335413;33;19975;-84
2023/01/05 00:04:34;;;;;;;;;;;;;;;10.18;68.91;99007.94;4335460;33;19989;-84
2023/01/05 00:06:59;;;;;;;;;;;;;;;9.87;69.96;99000.72;4335419;33;19979;-84
2023/01/05 00:09:24;;;;;;;;;;;;;;;9.11;72.83;98991.97;4335423;33;19983;-84
2023/01/05 00:22:47;;;;;;;;;;;;;;;10.04;68.76;98950.72;4334321;33;19989;-84
2023/01/05 00:25:26;;;;;;;;;;;;;;;9.62;70.25;98966.84;4334084;33;20264;-84
2023/01/05 00:27:52;;;;;;;;;;;;;;;9.89;68.77;98963.75;4334097;33;20363;-84
2023/01/05 00:30:19;;;;;;;;;;;;;;;10.20;67.95;98961.34;4335209;33;19993;-84
2023/01/05 00:32:44;;;;;;;;;;;;;;;10.21;67.69;98954.28;4335224;33;20518;-84
2023/01/05 00:35:10;;;;;;;;;;;;;;;9.68;69.74;98947.25;4333824;33;19979;-84
2023/01/05 00:37:37;;;;;;;;;;;;;;;9.95;68.61;98943.28;4335226;33;19990;-84
2023/01/05 00:40:02;;;;;;;;;;;;;;;9.49;70.30;98950.78;4334084;33;20050;-84
2023/01/05 00:42:28;;;;;;;;;;;;;;;9.60;70.21;98948.47;4333914;33;20015;-84
2023/01/05 00:44:53;;;;;;;;;;;;;;;9.93;68.29;98941.63;4335136;33;20248;-83
2023/01/05 00:47:18;;;;;;;;;;;;;;;10.15;67.70;98941.44;4335055;33;19995;-84
2023/01/05 00:49:43;;;;;;;;;;;;;;;10.28;67.30;98947.78;4335116;33;19980;-84
2023/01/05 00:52:08;;;;;;;;;;;;;;;9.72;69.35;98951.47;4335068;33;20019;-84
2023/01/05 00:54:34;;;;;;;;;;;;;;;9.71;69.51;98945.31;4334872;33;20284;-84
2023/01/05 00:57:00;;;;;;;;;;;;;;;9.68;69.62;98948.13;4335089;33;19991;-83
2023/01/05 00:59:25;;;;;;;;;;;;;;;10.21;67.72;98941.13;4334961;33;19990;-84
2023/01/05 01:01:51;;;;;;;;;;;;;;;9.45;69.87;98947.44;4334813;33;20324;-84
2023/01/05 01:04:16;;;;;;;;;;;;;;;9.18;71.91;98946.94;4334908;33;19979;-84
2023/01/05 01:06:42;;;;;;;;;;;;;;;9.89;68.93;98937.44;4334495;33;19999;-84
2023/01/05 01:09:07;;;;;;;;;;;;;;;10.36;67.12;98937.75;4334878;33;19994;-84
2023/01/05 01:11:32;;;;;;;;;;;;;;;10.28;67.28;98937.25;4334885;33;19983;-84
2023/01/05 01:13:58;;;;;;;;;;;;;;;10.09;67.29;98958.38;4333443;33;20325;-83
2023/01/05 01:16:23;;;;;;;;;;;;;;;10.55;66.12;98950.81;4334793;33;20348;-84
2023/01/05 01:18:48;;;;;;;;;;;;;;;10.36;66.37;98947.44;4334720;33;19975;-84
2023/01/05 01:21:14;;;;;;;;;;;;;;;10.14;66.60;98940.59;4333546;33;19975;-84
2023/01/05 01:23:39;;;;;;;;;;;;;;;10.51;66.11;98930.84;4333473;33;20237;-84
2023/01/05 01:26:08;;;;;;;;;;;;;;;10.16;67.11;98930.84;4332031;33;79032;-84
2023/01/05 01:28:33;;;;;;;;;;;;;;;10.01;67.50;98929.81;4334758;33;20386;-84
2023/01/05 01:30:58;;;;;;;;;;;;;;;9.85;68.47;98931.50;4333399;33;19984;-84
2023/01/05 01:33:24;;;;;;;;;;;;;;;10.40;66.33;98926.09;4334348;33;19981;-83
2023/01/05 01:35:49;;;;;;;;;;;;;;;10.43;66.04;98925.13;4333505;33;20316;-83
2023/01/05 01:38:14;;;;;;;;;;;;;;;10.43;65.79;98936.50;4334476;33;19975;-83
2023/01/05 01:40:40;;;;;;;;;;;;;;;10.30;66.22;98919.63;4334442;33;19979;-83
2023/01/05 01:43:10;;;;;;;;;;;;;;;10.31;66.29;98937.09;4334418;33;19972;-83
2023/01/05 01:45:36;;;;;;;;;;;;;;;10.32;66.22;98927.44;4333298;33;19995;-83
2023/01/05 01:48:01;;;;;;;;;;;;;;;10.51;65.42;98932.63;4333049;33;20037;-83
2023/01/05 01:50:30;;;;;;;;;;;;;;;9.97;67.27;98938.78;4333058;33;19987;-83
2023/01/05 01:53:02;;;;;;;;;;;;;;;10.38;66.00;98929.75;4333153;33;20042;-83
2023/01/05 01:55:28;;;;;;;;;;;;;;;10.67;64.81;98922.12;4333110;33;20030;-83
2023/01/05 01:57:53;;;;;;;;;;;;;;;10.07;66.74;98912.88;4334154;33;20039;-83
2023/01/05 02:00:20;;;;;;;;;;;;;;;10.86;64.24;98916.75;4334184;33;20244;-83
2023/01/05 02:02:46;;;;;;;;;;;;;;;10.92;64.04;98926.94;4334013;33;19971;-83
2023/01/05 02:05:11;;;;;;;;;;;;;;;10.79;64.28;98914.41;4333001;33;19983;-83
2023/01/05 02:07:38;;;;;;;;;;;;;;;10.89;64.00;98906.00;4332921;33;20272;-83
2023/01/05 02:10:03;;;;;;;;;;;;;;;11.00;63.56;98891.31;4332888;33;19979;-83
2023/01/05 02:12:52;;;;;;;;;;;;;;;10.73;64.39;98896.28;4333923;33;19990;-83
2023/01/05 02:15:17;;;;;;;;;;;;;;;11.02;63.44;98926.34;4331654;33;19971;-83
2023/01/05 02:17:45;;;;;;;;;;;;;;;11.21;62.80;98918.28;4333977;33;20015;-83
2023/01/05 02:20:29;;;;;;;;;;;;;;;11.17;62.88;98902.72;4335996;33;19958;-83
2023/01/05 02:22:54;;;;;;;;;;;;;;;10.75;63.78;98899.69;4336009;33;20367;-83
2023/01/05 02:25:28;;;;;;;;;;;;;;;10.09;66.60;98891.72;4336017;33;19971;-83
2023/01/05 02:28:12;;;;;;;;;;;;;;;10.02;66.75;98884.16;4334972;33;19987;-83
2023/01/05 02:30:43;;;;;;;;;;;;;;;9.75;67.75;98869.75;4336104;33;19975;-84
2023/01/05 02:33:19;;;;;;;;;;;;;;;9.63;68.30;98874.66;4334869;33;20362;-82
2023/01/05 02:35:54;;;;;;;;;;;;;;;9.60;69.06;98874.84;4335254;33;20493;-83
2023/01/05 02:38:25;;;;;;;;;;;;;;;9.80;68.10;98871.22;4335908;33;20005;-83
2023/01/05 02:40:52;;;;;;;;;;;;;;;10.08;67.68;98879.50;4334987;33;19989;-83
2023/01/05 02:43:20;;;;;;;;;;;;;;;10.15;67.31;98871.19;4334712;33;19987;-84
2023/01/05 02:45:48;;;;;;;;;;;;;;;10.32;66.54;98859.84;4334705;33;20354;-83
2023/01/05 02:48:14;;;;;;;;;;;;;;;10.14;67.16;98856.34;4336007;33;20344;-83
2023/01/05 02:50:49;;;;;;;;;;;;;;;10.30;66.65;98839.75;4335800;33;20010;-83
2023/01/05 02:53:15;;;;;;;;;;;;;;;10.54;65.35;98830.56;4334735;33;19979;-84
2023/01/05 02:55:40;;;;;;;;;;;;;;;10.67;64.89;98814.94;4335868;33;20016;-83
2023/01/05 02:58:07;;;;;;;;;;;;;;;10.22;65.86;98835.72;4335948;33;19990;-83
2023/01/05 03:00:34;;;;;;;;;;;;;;;10.70;64.57;98840.28;4334687;33;20010;-83
2023/01/05 03:03:01;;;;;;;;;;;;;;;10.52;64.89;98842.97;4334522;33;19978;-83
2023/01/05 03:05:31;;;;;;;;;;;;;;;10.19;65.52;98861.38;4335789;33;20022;-83
2023/01/05 03:08:05;;;;;;;;;;;;;;;10.82;63.91;98847.53;4334621;33;20050;-83
2023/01/05 03:16:01;;;;;;;;;;;;;;;10.23;65.65;98849.75;4334946;33;19994;-84
2023/01/05 03:18:26;;;;;;;;;;;;;;;10.73;64.25;98829.56;4334582;33;19991;-83
2023/01/05 03:20:51;;;;;;;;;;;;;;;10.71;64.30;98829.66;4334449;33;20058;-83
2023/01/05 03:37:08;;;;;;;;;;;;;;;10.95;64.01;98809.03;4334654;33;20027;-83
2023/01/05 03:39:33;;;;;;;;;;;;;;;10.82;64.53;98792.19;4334405;33;20012;-83
2023/01/05 03:41:58;;;;;;;;;;;;;;;10.90;64.44;98758.34;4334287;33;19975;-83
2023/01/05 03:44:24;;;;;;;;;;;;;;;11.06;63.98;98753.03;4334367;33;19989;-83
2023/01/05 03:46:50;;;;;;;;;;;;;;;11.14;64.19;98748.16;4335558;33;20319;-83
2023/01/05 03:49:16;;;;;;;;;;;;;;;10.91;65.02;98748.63;4334417;33;19995;-83
2023/01/05 03:51:41;;;;;;;;;;;;;;;10.78;65.29;98748.50;4335363;33;20482;-83
2023/01/05 03:54:07;;;;;;;;;;;;;;;10.66;65.47;98730.72;4335670;33;20019;-83
2023/01/05 03:56:32;;;;;;;;;;;;;;;10.62;65.48;98730.03;4335446;33;19979;-83
2023/01/05 03:58:57;;;;;;;;;;;;;;;10.47;65.48;98744.94;4335485;33;20038;-83
2023/01/05 04:01:22;;;;;;;;;;;;;;;10.53;65.34;98730.56;4335312;33;20015;-83
2023/01/05 04:03:48;;;;;;;;;;;;;;;10.87;63.98;98731.31;4335489;33;19984;-83
2023/01/05 04:06:13;;;;;;;;;;;;;;;11.15;62.98;98735.87;4335488;33;20019;-83
2023/01/05 04:08:38;;;;;;;;;;;;;;;11.09;63.08;98723.88;4335363;33;19991;-83
2023/01/05 04:11:17;;;;;;;;;;;;;;;11.01;63.29;98729.59;4335417;33;20229;-83
2023/01/05 04:13:42;;;;;;;;;;;;;;;11.08;63.02;98734.50;4335381;33;19975;-82
2023/01/05 04:16:08;;;;;;;;;;;;;;;10.81;63.80;98735.13;4335396;33;19989;-82
2023/01/05 04:18:33;;;;;;;;;;;;;;;11.22;62.48;98737.19;4334220;33;20096;-83
2023/01/05 04:20:58;;;;;;;;;;;;;;;11.10;62.89;98736.09;4335228;33;20006;-83
2023/01/05 04:23:23;;;;;;;;;;;;;;;10.90;63.14;98716.16;4333961;33;19994;-83
2023/01/05 04:25:49;;;;;;;;;;;;;;;11.08;62.75;98722.16;4335259;33;19991;-84
2023/01/05 04:28:14;;;;;;;;;;;;;;;11.44;61.60;98720.13;4335056;33;19993;-83
2023/01/05 04:30:41;;;;;;;;;;;;;;;10.94;63.17;98727.41;4335260;33;19971;-83
2023/01/05 04:33:06;;;;;;;;;;;;;;;11.26;62.14;98727.31;4335031;33;19978;-82
2023/01/05 04:35:32;;;;;;;;;;;;;;;11.29;62.20;98724.50;4335397;33;19998;-84
2023/01/05 04:37:57;;;;;;;;;;;;;;;11.01;63.19;98711.13;4335166;33;19975;-83
2023/01/05 04:40:22;;;;;;;;;;;;;;;11.26;62.61;98699.19;4334899;33;19971;-84
2023/01/05 04:42:47;;;;;;;;;;;;;;;11.25;62.45;98705.37;4334191;33;20001;-83
2023/01/05 04:45:13;;;;;;;;;;;;;;;10.68;64.61;98711.28;4335178;33;20015;-83
2023/01/05 04:47:38;;;;;;;;;;;;;;;10.56;65.29;98717.22;4333867;33;20290;-84
2023/01/05 04:50:03;;;;;;;;;;;;;;;10.58;65.06;98707.44;4335059;33;19998;-83
2023/01/05 04:52:28;;;;;;;;;;;;;;;10.60;65.24;98703.81;4335035;33;19989;-83
2023/01/05 04:54:54;;;;;;;;;;;;;;;10.60;65.09;98700.31;4334959;33;20277;-83
2023/01/05 04:57:19;;;;;;;;;;;;;;;10.42;65.65;98699.56;4335012;33;19994;-83
2023/01/05 04:59:44;;;;;;;;;;;;;;;10.65;65.21;98702.69;4333910;33;20007;-83
2023/01/05 05:02:10;;;;;;;;;;;;;;;9.93;67.66;98710.94;4334830;33;20030;-83
2023/01/05 05:04:35;;;;;;;;;;;;;;;10.18;66.68;98696.47;4334965;33;20351;-84
2023/01/05 05:07:00;;;;;;;;;;;;;;;10.38;65.83;98688.34;4334792;33;19994;-83
2023/01/05 05:09:25;;;;;;;;;;;;;;;9.97;67.40;98693.22;4334853;33;20005;-83
2023/01/05 05:11:51;;;;;;;;;;;;;;;10.11;66.45;98682.78;4334577;33;20018;-83
2023/01/05 05:14:16;;;;;;;;;;;;;;;9.56;68.30;98694.47;4334835;33;19971;-83
2023/01/05 05:16:41;;;;;;;;;;;;;;;9.58;68.92;98684.72;4334851;33;20070;-83
2023/01/05 05:19:07;;;;;;;;;;;;;;;10.21;66.45;98691.84;4334804;33;19971;-83
2023/01/05 05:21:33;;;;;;;;;;;;;;;9.96;67.19;98692.34;4334630;33;20328;-83
2023/01/05 05:23:58;;;;;;;;;;;;;;;10.27;66.04;98693.31;4334719;33;19991;-84
2023/01/05 05:26:23;;;;;;;;;;;;;;;9.99;66.55;98707.13;4333292;33;19991;-83
2023/01/05 05:28:48;;;;;;;;;;;;;;;10.39;65.62;98695.31;4334576;33;20013;-83
2023/01/05 05:31:14;;;;;;;;;;;;;;;10.31;65.85;98700.13;4333428;33;20018;-83
2023/01/05 05:33:40;;;;;;;;;;;;;;;10.54;64.76;98695.38;4334340;33;19972;-83
2023/01/05 05:36:05;;;;;;;;;;;;;;;10.06;65.78;98681.31;4334679;33;20014;-83
2023/01/05 05:38:30;;;;;;;;;;;;;;;9.90;66.83;98683.94;4334444;33;19975;-83
2023/01/05 05:40:56;;;;;;;;;;;;;;;10.26;65.53;98673.19;4334509;33;19975;-83
2023/01/05 05:43:21;;;;;;;;;;;;;;;9.57;67.66;98675.09;4333067;33;19991;-83
2023/01/05 05:45:46;;;;;;;;;;;;;;;10.10;66.37;98675.81;4334363;33;20007;-83
2023/01/05 05:48:11;;;;;;;;;;;;;;;9.76;67.26;98682.03;4334281;33;19999;-83
2023/01/05 05:50:37;;;;;;;;;;;;;;;10.18;65.97;98688.56;4334242;33;19971;-83
2023/01/05 05:53:02;;;;;;;;;;;;;;;10.01;66.46;98682.41;4335214;33;19976;-83
2023/01/05 05:55:27;;;;;;;;;;;;;;;9.62;67.78;98680.97;4336270;33;19975;-83
2023/01/05 05:57:52;;;;;;;;;;;;;;;9.85;67.03;98678.94;4334969;33;20335;-83
2023/01/05 06:00:18;;;;;;;;;;;;;;;9.11;69.58;98681.87;4336205;33;19998;-83
2023/01/05 06:02:43;;;;;;;;;;;;;;;9.42;68.60;98682.00;4336091;33;20019;-83
2023/01/05 06:05:08;;;;;;;;;;;;;;;8.83;70.16;98675.37;4336151;33;20359;-83
2023/01/05 06:07:34;;;;;;;;;;;;;;;9.05;70.38;98662.00;4336113;33;19975;-83
2023/01/05 06:09:59;;;;;;;;;;;;;;;8.99;70.36;98667.56;4336243;33;19998;-83
2023/01/05 06:12:24;;;;;;;;;;;;;;;9.05;69.70;98673.34;4336121;33;20030;-82
2023/01/05 06:14:50;;;;;;;;;;;;;;;9.19;69.08;98675.31;4336163;33;20006;-83
2023/01/05 06:17:15;;;;;;;;;;;;;;;8.93;70.52;98673.13;4336105;33;20233;-83
2023/01/05 06:19:40;;;;;;;;;;;;;;;9.44;68.42;98679.28;4334929;33;19975;-83
2023/01/05 06:22:05;;;;;;;;;;;;;;;9.45;68.12;98670.50;4336080;33;20018;-83
2023/01/05 06:24:31;;;;;;;;;;;;;;;9.80;66.89;98673.06;4336134;33;19979;-83
2023/01/05 06:26:56;;;;;;;;;;;;;;;9.83;66.63;98670.25;4336110;33;19997;-83
2023/01/05 06:29:21;;;;;;;;;;;;;;;9.19;68.54;98662.19;4336084;33;20007;-83
2023/01/05 06:31:46;;;;;;;;;;;;;;;9.37;68.31;98652.47;4334668;33;20015;-83
2023/01/05 06:34:12;;;;;;;;;;;;;;;9.71;66.76;98649.84;4335844;33;20031;-83
2023/01/05 06:36:37;;;;;;;;;;;;;;;9.78;66.39;98651.22;4334872;33;20247;-83
2023/01/05 06:39:02;;;;;;;;;;;;;;;10.07;65.21;98641.75;4335941;33;19994;-83
2023/01/05 06:41:27;;;;;;;;;;;;;;;10.06;65.07;98641.84;4335874;33;20320;-83
2023/01/05 06:43:53;;;;;;;;;;;;;;;10.38;64.08;98630.41;4335898;33;20013;-83
2023/01/05 06:46:18;;;;;;;;;;;;;;;9.73;65.64;98634.84;4335995;33;19981;-83
2023/01/05 06:48:43;;;;;;;;;;;;;;;9.75;66.01;98623.28;4335979;33;20237;-83
2023/01/05 06:51:08;;;;;;;;;;;;;;;9.88;65.49;98622.66;4335708;33;19990;-83
2023/01/05 06:53:34;;;;;;;;;;;;;;;9.77;65.78;98615.31;4335717;33;19995;-83
2023/01/05 06:55:59;;;;;;;;;;;;;;;10.03;65.06;98608.66;4335786;33;19983;-82
2023/01/05 06:58:24;;;;;;;;;;;;;;;9.41;66.76;98625.09;4335742;33;19975;-83
2023/01/05 07:00:49;;;;;;;;;;;;;;;9.70;66.00;98619.25;4335886;33;19975;-83
2023/01/05 07:03:15;;;;;;;;;;;;;;;9.05;68.18;98631.31;4334316;33;19987;-83
2023/01/05 07:05:40;;;;;;;;;;;;;;;9.30;67.86;98623.97;4335319;33;20347;-83
2023/01/05 07:08:05;;;;;;;;;;;;;;;9.73;66.53;98622.53;4334757;33;19991;-83
2023/01/05 07:10:31;;;;;;;;;;;;;;;9.80;66.20;98623.06;4334886;33;20028;-83
2023/01/05 07:12:56;;;;;;;;;;;;;;;9.79;66.74;98616.09;4336123;33;19998;-83
2023/01/05 07:15:21;;;;;;;;;;;;;;;10.16;66.37;98614.94;4334762;33;20261;-83
2023/01/05 07:17:46;;;;;;;;;;;;;;;10.17;66.91;98603.47;4335859;33;20023;-83
2023/01/05 07:20:12;;;;;;;;;;;;;;;10.38;67.37;98596.16;4335799;33;20075;-83
2023/01/05 07:22:37;;;;;;;;;;;;;;;10.55;67.56;98589.94;4336017;33;19975;-82
2023/01/05 07:25:02;;;;;;;;;;;;;;;10.17;69.35;98585.03;4335971;33;19982;-83
2023/01/05 07:27:27;;;;;;;;;;;;;;;10.34;70.32;98572.75;4335913;33;20019;-82
2023/01/05 07:29:53;;;;;;;;;;;;;;;10.46;70.02;98577.28;4335912;33;19976;-82
2023/01/05 07:32:18;;;;;;;;;;;;;;;10.77;68.96;98583.41;4334669;33;19987;-83
2023/01/05 07:34:43;;;;;;;;;;;;;;;11.05;67.28;98579.12;4334155;33;20027;-83
2023/01/05 07:37:09;;;;;;;;;;;;;;;11.10;67.80;98569.19;4334382;33;20312;-83
2023/01/05 07:39:35;;;;;;;;;;;;;;;11.39;66.92;98577.94;4334397;33;19987;-82
2023/01/05 07:42:00;;;;;;;;;;;;;;;11.75;65.21;98574.00;4335500;33;19994;-82
2023/01/05 07:44:25;;;;;;;;;;;;;;;12.25;63.88;98580.50;4335503;33;19975;-83
2023/01/05 07:46:51;;;;;;;;;;;;;;;12.54;63.05;98568.03;4335440;33;19993;-83
2023/01/05 07:49:16;;;;;;;;;;;;;;;12.26;64.24;98568.97;4335598;33;19971;-83
2023/01/05 07:51:41;;;;;;;;;;;;;;;12.38;63.31;98559.41;4335506;33;20249;-83
2023/01/05 07:54:06;;;;;;;;;;;;;;;12.38;62.57;98565.56;4334137;33;19994;-83
2023/01/05 07:56:32;;;;;;;;;;;;;;;12.13;62.41;98561.03;4335435;33;20045;-83
2023/01/05 07:58:57;;;;;;;;;;;;;;;12.05;62.45;98588.84;4335509;33;20010;-83
2023/01/05 08:01:23;;;;;;;;;;;;;;;12.24;61.64;98572.69;4334346;33;19991;-83
2023/01/05 08:03:48;;;;;;;;;;;;;;;12.06;62.71;98565.00;4335433;33;20009;-82
2023/01/05 08:06:14;;;;;;;;;;;;;;;11.93;63.89;98567.56;4335489;33;20010;-83
2023/01/05 08:08:39;;;;;;;;;;;;;;;12.16;63.33;98559.97;4335358;33;20001;-83
2023/01/05 08:11:05;;;;;;;;;;;;;;;12.07;63.60;98545.59;4334299;33;20340;-83
2023/01/05 08:16:14;;;;;;;;;;;;;;;12.11;63.16;98554.13;4334284;33;20277;-82
2023/01/05 08:18:39;;;;;;;;;;;;;;;12.05;63.54;98558.00;4335324;33;19971;-83
2023/01/05 08:21:07;;;;;;;;;;;;;;;11.59;64.54;98560.91;4335380;33;19983;-82
2023/01/05 08:23:32;;;;;;;;;;;;;;;11.76;63.69;98557.19;4335290;33;20002;-82
2023/01/05 08:26:01;;;;;;;;;;;;;;;11.07;65.75;98564.94;4334089;33;19975;-83
2023/01/05 08:28:26;;;;;;;;;;;;;;;11.60;64.23;98558.16;4335271;33;19994;-83
2023/01/05 08:30:52;;;;;;;;;;;;;;;11.67;64.16;98561.28;4335268;33;20319;-83
2023/01/05 08:33:17;;;;;;;;;;;;;;;11.69;63.78;98558.53;4335132;33;19963;-83
2023/01/05 08:35:43;;;;;;;;;;;;;;;11.56;64.20;98558.44;4335189;33;20010;-83
2023/01/05 08:38:08;;;;;;;;;;;;;;;11.40;64.10;98554.13;4335189;33;20024;-83
2023/01/05 08:40:34;;;;;;;;;;;;;;;11.97;62.88;98549.75;4334087;33;20031;-83
2023/01/05 08:43:00;;;;;;;;;;;;;;;11.35;64.40;98563.25;4334977;33;19967;-83
2023/01/05 08:45:25;;;;;;;;;;;;;;;11.44;63.58;98553.94;4334904;33;20281;-83
2023/01/05 08:47:50;;;;;;;;;;;;;;;11.50;64.03;98572.03;4334952;33;20035;-82
2023/01/05 08:50:16;;;;;;;;;;;;;;;11.10;65.66;98575.28;4335072;33;19994;-83
2023/01/05 08:52:41;;;;;;;;;;;;;;;11.57;63.85;98566.28;4334006;33;20345;-83
2023/01/05 08:55:06;;;;;;;;;;;;;;;11.54;64.21;98569.09;4334939;33;20015;-83
2023/01/05 08:57:32;;;;;;;;;;;;;;;11.83;63.81;98569.06;4335022;33;20358;-82
2023/01/05 08:59:57;;;;;;;;;;;;;;;11.98;63.57;98577.84;4334065;33;20275;-83
2023/01/05 09:02:22;;;;;;;;;;;;;;;12.39;62.40;98596.28;4334922;33;19997;-82
2023/01/05 09:04:48;;;;;;;;;;;;;;;12.47;62.76;98584.37;4334926;33;20011;-83
2023/01/05 09:07:13;;;;;;;;;;;;;;;12.31;62.59;98581.91;4334838;33;19987;-83
2023/01/05 09:09:38;;;;;;;;;;;;;;;12.44;62.89;98571.38;4334883;33;19978;-83
2023/01/05 09:12:03;;;;;;;;;;;;;;;12.14;63.61;98572.41;4334867;33;19975;-83
2023/01/05 09:14:29;;;;;;;;;;;;;;;11.92;63.85;98587.00;4334863;33;19992;-83
2023/01/05 09:16:54;;;;;;;;;;;;;;;12.33;62.76;98601.97;4334861;33;20031;-83
2023/01/05 09:19:19;;;;;;;;;;;;;;;12.08;63.69;98601.88;4333585;33;19983;-82
2023/01/05 09:21:44;;;;;;;;;;;;;;;12.39;62.95;98604.22;4334727;33;19982;-83
2023/01/05 09:24:11;;;;;;;;;;;;;;;12.20;63.83;98603.72;4334690;33;19975;-83
2023/01/05 09:26:36;;;;;;;;;;;;;;;12.22;64.01;98614.19;4334711;33;20003;-82
2023/01/05 09:29:02;;;;;;;;;;;;;;;11.98;64.36;98583.97;4336317;33;20041;-83
2023/01/05 09:31:27;;;;;;;;;;;;;;;12.24;64.01;98564.75;4336471;33;19976;-83
2023/01/05 09:33:52;;;;;;;;;;;;;;;12.50;63.15;98550.69;4336286;33;20003;-81
2023/01/05 09:36:17;;;;;;;;;;;;;;;11.86;64.73;98550.41;4336245;33;19975;-81
2023/01/05 09:38:48;;;;;;;;;;;;;;;12.24;63.29;98538.34;4335202;33;20047;-81
2023/01/05 09:41:16;;;;;;;;;;;;;;;12.55;62.74;98531.88;4335271;33;20332;-83
2023/01/05 09:43:41;;;;;;;;;;;;;;;12.85;62.46;98531.63;4336418;33;19967;-82
2023/01/05 09:46:12;;;;;;;;;;;;;;;13.02;62.27;98529.59;4334909;33;19983;-82
2023/01/05 09:48:41;;;;;;;;;;;;;;;13.23;61.56;98522.84;4335265;33;19995;-82
2023/01/05 09:51:06;;;;;;;;;;;;;;;13.02;60.99;98521.66;4335201;33;19983;-82
2023/01/05 09:53:31;;;;;;;;;;;;;;;12.85;61.24;98515.75;4334931;33;20039;-82
2023/01/05 09:55:57;;;;;;;;;;;;;;;12.88;61.03;98519.97;4335036;33;19985;-82
2023/01/05 09:58:26;;;;;;;;;;;;;;;12.81;61.46;98508.16;4336275;33;20025;-82
2023/01/05 10:01:04;;;;;;;;;;;;;;;13.30;60.47;98504.78;4336294;33;19967;-82
2023/01/05 10:03:29;;;;;;;;;;;;;;;12.60;62.09;98508.63;4336151;33;20014;-82
2023/01/05 10:05:54;;;;;;;;;;;;;;;12.23;63.38;98502.31;4335125;33;19991;-82
2023/01/05 10:08:29;;;;;;;;;;;;;;;12.53;62.89;98489.69;4336079;33;20238;-82
2023/01/05 10:13:55;;;;;;;;;;;;;;;11.97;64.83;98496.94;4335225;33;20009;-82
2023/01/05 10:16:20;;;;;;;;;;;;;;;12.16;64.52;98499.22;4336013;33;20372;-82
2023/01/05 10:18:45;;;;;;;;;;;;;;;12.07;64.01;98494.53;4334935;33;19999;-82
2023/01/05 10:21:23;;;;;;;;;;;;;;;12.29;63.53;98483.44;4334788;33;19975;-82
2023/01/05 10:24:01;;;;;;;;;;;;;;;12.15;63.96;98489.63;4335946;33;20031;-82
2023/01/05 10:26:36;;;;;;;;;;;;;;;12.53;62.35;98465.91;4335006;33;20043;-82
2023/01/05 10:29:01;;;;;;;;;;;;;;;12.49;62.27;98471.53;4336117;33;20002;-82
2023/01/05 10:31:40;;;;;;;;;;;;;;;12.29;62.23;98486.06;4335996;33;19975;-82
2023/01/05 10:34:08;;;;;;;;;;;;;;;12.37;63.04;98495.16;4334644;33;20617;-83
2023/01/05 10:37:00;;;;;;;;;;;;;;;11.75;65.52;98502.75;4334904;33;20027;-83
2023/01/05 10:39:35;;;;;;;;;;;;;;;12.49;64.19;98519.06;4318690;33;20058;-83
2023/01/05 10:42:00;;;;;;;;;;;;;;;12.19;64.96;98528.09;4304568;33;19980;-83
2023/01/05 10:44:38;;;;;;;;;;;;;;;12.16;64.82;98541.47;4302914;33;20349;-83
2023/01/05 10:47:06;;;;;;;;;;;;;;;12.37;63.40;98553.28;4305478;33;20172;-81
2023/01/05 10:49:31;;;;;;;;;;;;;;;12.35;63.92;98560.47;4299091;33;19992;-84
2023/01/05 10:51:57;;;;;;;;;;;;;;;12.04;65.54;98576.63;4304494;33;20427;-84
2023/01/05 10:54:39;;;;;;;;;;;;;;;11.58;68.05;98560.03;4292267;33;20662;-84
2023/01/05 10:57:27;;;;;;;;;;;;;;;11.56;68.04;98559.28;4304339;33;20280;-84
2023/01/05 11:00:01;;;;;;;;;;;;;;;12.11;67.77;98572.59;4304716;33;20011;-84
2023/01/05 11:02:30;;;;;;;;;;;;;;;12.34;66.77;98565.84;4304340;33;20381;-85
2023/01/05 11:04:59;;;;;;;;;;;;;;;12.70;65.82;98562.56;4304356;33;20196;-84
2023/01/05 11:07:24;;;;;;;;;;;;;;;12.38;67.46;98569.97;4304361;33;19996;-84
2023/01/05 11:09:49;;;;;;;;;;;;;;;12.88;65.71;98567.56;4304183;33;20048;-84
2023/01/05 11:12:21;;;;;;;;;;;;;;;13.18;64.86;98564.62;4304431;33;20316;-85
2023/01/05 11:14:48;;;;;;;;;;;;;;;12.24;68.12;98589.34;4304319;33;20023;-84
2023/01/05 11:17:18;;;;;;;;;;;;;;;12.31;67.93;98603.88;4319494;33;20694;-85
2023/01/05 11:19:45;;;;;;;;;;;;;;;12.27;67.95;98596.25;4319806;33;20465;-85
2023/01/05 11:22:29;;;;;;;;;;;;;;;12.23;68.32;98585.03;4319795;33;20325;-84
2023/01/05 11:25:01;;;;;;;;;;;;;;;12.29;67.89;98597.84;4321268;33;20317;-82
2023/01/05 11:27:26;;;;;;;;;;;;;;;11.72;69.95;98600.56;4320141;33;20321;-81
2023/01/05 11:30:10;;;;;;;;;;;;;;;11.81;70.15;98597.34;4321295;33;20027;-81
2023/01/05 11:32:35;;;;;;;;;;;;;;;11.29;72.35;98590.00;4320958;33;20015;-80
2023/01/05 11:35:00;;;;;;;;;;;;;;;11.18;73.12;98595.91;4319630;33;19985;-79
2023/01/05 11:37:29;;;;;;;;;;;;;;;11.41;72.85;98594.53;4323551;33;20588;-78
2023/01/05 11:39:54;;;;;;;;;;;;;;;11.23;73.25;98593.88;4334869;33;20684;-80
2023/01/05 11:42:27;;;;;;;;;;;;;;;10.36;77.52;98579.59;4335617;33;19982;-80
2023/01/05 11:44:56;;;;;;;;;;;;;;;10.56;76.17;98596.06;4334305;33;19971;-84
2023/01/05 11:47:21;;;;;;;;;;;;;;;10.89;74.35;98589.75;4334099;33;20011;-81
2023/01/05 11:49:47;;;;;;;;;;;;;;;10.82;73.48;98574.31;4321641;33;19995;-82
2023/01/05 11:52:23;;;;;;;;;;;;;;;10.66;72.83;98560.31;4334308;33;20054;-81
2023/01/05 11:54:48;;;;;;;;;;;;;;;10.92;71.36;98545.63;4335337;33;19971;-79
2023/01/05 11:57:18;;;;;;;;;;;;;;;11.13;70.94;98537.37;4335210;33;20261;-79
2023/01/05 11:59:44;;;;;;;;;;;;;;;11.23;70.61;98516.56;4333976;33;20049;-80
2023/01/05 12:02:25;;;;;;;;;;;;;;;11.30;71.15;98524.00;4333997;33;20356;-80
2023/01/05 12:04:50;;;;;;;;;;;;;;;11.51;69.75;98519.19;4335644;33;19971;-78
2023/01/05 12:07:19;;;;;;;;;;;;;;;10.95;71.47;98537.53;4335227;33;19967;-80
2023/01/05 12:09:46;;;;;;;;;;;;;;;11.18;71.36;98553.72;4335009;33;20260;-81
2023/01/05 12:12:14;;;;;;;;;;;;;;;11.45;69.35;98542.44;4343691;33;20134;-77
2023/01/05 12:14:40;;;;;;;;;;;;;;;10.67;73.93;98574.38;4324960;33;19970;-79
2023/01/05 12:17:09;;;;;;;;;;;;;;;10.58;74.31;98573.09;4335023;33;20335;-81
2023/01/05 12:19:44;;;;;;;;;;;;;;;10.82;73.92;98574.31;4333981;33;20034;-80
2023/01/05 12:22:12;;;;;;;;;;;;;;;11.04;73.27;98583.56;4339313;33;19991;-80
2023/01/05 12:24:56;;;;;;;;;;;;;;;10.96;72.80;98596.38;4335278;33;19968;-81
2023/01/05 12:27:24;;;;;;;;;;;;;;;11.06;72.12;98583.50;4323756;33;19976;-80
2023/01/05 12:29:59;;;;;;;;;;;;;;;10.86;73.12;98589.94;4335117;33;19991;-81
2023/01/05 12:33:00;;;;;;;;;;;;;;;10.67;74.12;98601.56;4334917;33;20416;-81
2023/01/05 12:35:44;;;;;;;;;;;;;;;10.85;74.67;98617.22;4307705;33;19982;-78
2023/01/05 12:38:15;;;;;;;;;;;;;;;11.25;73.26;98607.81;4310678;33;20010;-78
2023/01/05 12:40:59;;;;;;;;;;;;;;;11.16;72.92;98592.53;4325922;33;19999;-78
2023/01/05 12:43:34;;;;;;;;;;;;;;;11.17;73.11;98583.69;4315309;33;20030;-78
2023/01/05 12:46:06;;;;;;;;;;;;;;;10.99;73.38;98586.50;4303623;33;20002;-78
2023/01/05 12:48:39;;;;;;;;;;;;;;;11.09;71.93;98564.88;4318247;33;20007;-77
2023/01/05 12:51:04;;;;;;;;;;;;;;;11.21;71.87;98572.03;4304600;33;19987;-77
2023/01/05 12:53:43;;;;;;;;;;;;;;;11.24;71.92;98552.53;4323197;33;20351;-75
2023/01/05 12:56:18;;;;;;;;;;;;;;;11.32;72.59;98545.84;4302874;33;20173;-76
2023/01/05 12:58:46;;;;;;;;;;;;;;;11.47;70.59;98533.47;4310638;33;20014;-76
2023/01/05 13:01:16;;;;;;;;;;;;;;;11.75;69.71;98529.97;4302891;33;20075;-76
2023/01/05 13:03:44;;;;;;;;;;;;;;;11.41;70.44;98521.56;4304865;33;20641;-77
2023/01/05 13:06:19;;;;;;;;;;;;;;;11.73;68.85;98525.75;4305865;33;19975;-77
2023/01/05 13:08:50;;;;;;;;;;;;;;;11.45;70.87;98518.69;4321179;33;20042;-79
2023/01/05 13:11:35;;;;;;;;;;;;;;;11.73;69.05;98504.63;4334906;33;20346;-78
2023/01/05 13:14:04;;;;;;;;;;;;;;;11.50;70.83;98506.91;4334195;33;19975;-80
2023/01/05 13:16:39;;;;;;;;;;;;;;;11.93;68.91;98509.47;4333397;33;20009;-81
2023/01/05 13:19:09;;;;;;;;;;;;;;;11.99;68.59;98501.19;4333031;33;20028;-82
2023/01/05 13:21:35;;;;;;;;;;;;;;;11.72;68.97;98495.00;4333137;33;20896;-82
2023/01/05 13:24:23;;;;;;;;;;;;;;;12.20;67.90;98503.34;4333072;32;19968;-82
2023/01/05 13:26:48;;;;;;;;;;;;;;;12.36;67.19;98513.75;4331605;33;19967;-79